AIB280 MMCZ-SKBQ
Flight info
| Callsign | AIB280 |
|---|---|
| Flight time | 2h 6m |
| Altitude | 39000 |
| Route | AVSEB2B AVSEB UM782 AGUJA UL667 CTG CTG1A |
| Aircraft | A359/H-SDE2E3GHIJ3J4J5LM1ORWXY/LB1D1 |
Departure
| Time | 2026-05-09 02:22 |
|---|---|
| Airport | Cozumel International Airport (MMCZ) |
Arrival
| Time | 2026-05-09 04:28 |
|---|---|
| Airport | Ernesto Cortissoz International Airport (SKBQ) |
| Time | Latitude | Longitude | Altitude | Speed | Heading |
|---|---|---|---|---|---|
| 2026-05-09 02:22 | 20.48611 | -86.85867 | 2597 ft | 213 kts | 114° |
| 2026-05-09 02:22 | 20.48041 | -86.84339 | 3028 ft | 229 kts | 113° |
| 2026-05-09 02:22 | 20.47465 | -86.82708 | 3603 ft | 238 kts | 112° |
| 2026-05-09 02:22 | 20.46841 | -86.81077 | 4213 ft | 243 kts | 120° |
| 2026-05-09 02:23 | 20.45876 | -86.79581 | 4828 ft | 248 kts | 130° |
| 2026-05-09 02:23 | 20.44789 | -86.78212 | 5462 ft | 250 kts | 132° |
| 2026-05-09 02:23 | 20.43585 | -86.76831 | 6130 ft | 253 kts | 134° |
| 2026-05-09 02:23 | 20.42346 | -86.75466 | 6824 ft | 253 kts | 134° |
| 2026-05-09 02:24 | 20.41109 | -86.74106 | 7423 ft | 257 kts | 134° |
| 2026-05-09 02:24 | 20.39860 | -86.72720 | 7968 ft | 263 kts | 134° |
| 2026-05-09 02:24 | 20.38576 | -86.71288 | 8464 ft | 271 kts | 133° |
| 2026-05-09 02:24 | 20.37263 | -86.69817 | 9058 ft | 276 kts | 134° |
| 2026-05-09 02:25 | 20.35927 | -86.68316 | 9653 ft | 281 kts | 134° |
| 2026-05-09 02:25 | 20.34568 | -86.66789 | 10177 ft | 289 kts | 134° |
| 2026-05-09 02:25 | 20.33147 | -86.65194 | 10459 ft | 304 kts | 134° |
| 2026-05-09 02:25 | 20.31670 | -86.63537 | 10713 ft | 320 kts | 134° |
| 2026-05-09 02:26 | 20.30104 | -86.61781 | 10963 ft | 334 kts | 134° |
| 2026-05-09 02:26 | 20.28469 | -86.59949 | 11200 ft | 348 kts | 134° |
| 2026-05-09 02:26 | 20.26752 | -86.58027 | 11444 ft | 360 kts | 134° |
| 2026-05-09 02:26 | 20.25025 | -86.56095 | 11744 ft | 368 kts | 134° |
| 2026-05-09 02:27 | 20.23250 | -86.54108 | 12189 ft | 371 kts | 134° |
| 2026-05-09 02:27 | 20.21464 | -86.52109 | 12674 ft | 374 kts | 135° |
| 2026-05-09 02:27 | 20.19668 | -86.50098 | 13121 ft | 376 kts | 135° |
| 2026-05-09 02:27 | 20.17851 | -86.48065 | 13595 ft | 379 kts | 135° |
| 2026-05-09 02:28 | 20.16643 | -86.46714 | 13876 ft | 380 kts | 135° |
| 2026-05-09 02:28 | 20.14812 | -86.44667 | 14256 ft | 383 kts | 135° |
| 2026-05-09 02:28 | 20.12961 | -86.42599 | 14645 ft | 386 kts | 135° |
| 2026-05-09 02:28 | 20.11098 | -86.40518 | 15005 ft | 389 kts | 135° |
| 2026-05-09 02:29 | 20.09229 | -86.38429 | 15413 ft | 390 kts | 135° |
| 2026-05-09 02:29 | 20.07360 | -86.36340 | 15887 ft | 390 kts | 135° |
| 2026-05-09 02:29 | 20.05501 | -86.34266 | 16260 ft | 392 kts | 135° |
| 2026-05-09 02:29 | 20.03603 | -86.32151 | 16633 ft | 395 kts | 135° |
| 2026-05-09 02:30 | 20.01702 | -86.30033 | 17000 ft | 397 kts | 135° |
| 2026-05-09 02:30 | 19.99783 | -86.27896 | 17378 ft | 400 kts | 135° |
| 2026-05-09 02:30 | 19.97850 | -86.25744 | 17713 ft | 403 kts | 135° |
| 2026-05-09 02:30 | 19.95905 | -86.23579 | 18066 ft | 406 kts | 135° |
| 2026-05-09 02:31 | 19.93945 | -86.21398 | 18386 ft | 409 kts | 135° |
| 2026-05-09 02:31 | 19.91995 | -86.19227 | 18689 ft | 411 kts | 135° |
| 2026-05-09 02:31 | 19.90015 | -86.17025 | 19007 ft | 413 kts | 135° |
| 2026-05-09 02:31 | 19.88028 | -86.14815 | 19379 ft | 414 kts | 135° |
| 2026-05-09 02:32 | 19.86031 | -86.12596 | 19684 ft | 417 kts | 135° |
| 2026-05-09 02:32 | 19.84019 | -86.10360 | 19972 ft | 420 kts | 135° |
| 2026-05-09 02:32 | 19.81993 | -86.08111 | 20305 ft | 422 kts | 136° |
| 2026-05-09 02:32 | 19.79952 | -86.05845 | 20619 ft | 424 kts | 136° |
| 2026-05-09 02:33 | 19.77906 | -86.03575 | 20930 ft | 427 kts | 136° |
| 2026-05-09 02:33 | 19.75842 | -86.01287 | 21237 ft | 430 kts | 136° |
| 2026-05-09 02:33 | 19.73792 | -85.99015 | 21655 ft | 430 kts | 135° |
| 2026-05-09 02:33 | 19.71711 | -85.96713 | 21893 ft | 436 kts | 135° |
| 2026-05-09 02:34 | 19.69600 | -85.94375 | 22164 ft | 440 kts | 135° |
| 2026-05-09 02:34 | 19.67477 | -85.92021 | 22545 ft | 442 kts | 135° |
| 2026-05-09 02:34 | 19.65349 | -85.89662 | 22973 ft | 443 kts | 135° |
| 2026-05-09 02:34 | 19.63206 | -85.87290 | 23277 ft | 447 kts | 135° |
| 2026-05-09 02:35 | 19.61039 | -85.84895 | 23556 ft | 451 kts | 135° |
| 2026-05-09 02:35 | 19.58867 | -85.82490 | 23884 ft | 452 kts | 135° |
| 2026-05-09 02:35 | 19.56711 | -85.80106 | 24215 ft | 454 kts | 135° |
| 2026-05-09 02:35 | 19.54515 | -85.77682 | 24443 ft | 458 kts | 135° |
| 2026-05-09 02:36 | 19.52296 | -85.75231 | 24749 ft | 461 kts | 136° |
| 2026-05-09 02:36 | 19.50067 | -85.72771 | 25066 ft | 464 kts | 136° |
| 2026-05-09 02:36 | 19.47820 | -85.70294 | 25372 ft | 468 kts | 135° |
| 2026-05-09 02:36 | 19.45556 | -85.67798 | 25705 ft | 471 kts | 135° |
| 2026-05-09 02:37 | 19.43270 | -85.65278 | 26019 ft | 475 kts | 135° |
| 2026-05-09 02:37 | 19.40970 | -85.62743 | 26356 ft | 479 kts | 135° |
| 2026-05-09 02:37 | 19.38653 | -85.60192 | 26795 ft | 479 kts | 135° |
| 2026-05-09 02:37 | 19.36364 | -85.57672 | 27180 ft | 482 kts | 135° |
| 2026-05-09 02:38 | 19.34027 | -85.55099 | 27512 ft | 486 kts | 135° |
| 2026-05-09 02:38 | 19.31676 | -85.52513 | 27834 ft | 489 kts | 135° |
| 2026-05-09 02:38 | 19.29304 | -85.49905 | 28173 ft | 493 kts | 135° |
| 2026-05-09 02:38 | 19.26910 | -85.47273 | 28520 ft | 496 kts | 135° |
| 2026-05-09 02:39 | 19.24508 | -85.44635 | 28856 ft | 499 kts | 135° |
| 2026-05-09 02:39 | 19.22090 | -85.41980 | 29091 ft | 504 kts | 135° |
| 2026-05-09 02:39 | 19.19638 | -85.39292 | 29272 ft | 510 kts | 135° |
| 2026-05-09 02:39 | 19.17174 | -85.36589 | 29699 ft | 510 kts | 134° |
| 2026-05-09 02:40 | 19.14725 | -85.33903 | 29899 ft | 516 kts | 135° |
| 2026-05-09 02:40 | 19.12217 | -85.31156 | 30045 ft | 520 kts | 134° |
| 2026-05-09 02:40 | 19.09708 | -85.28406 | 30458 ft | 519 kts | 135° |
| 2026-05-09 02:40 | 19.07201 | -85.25660 | 30824 ft | 518 kts | 134° |
| 2026-05-09 02:41 | 19.04698 | -85.22918 | 31190 ft | 518 kts | 134° |
| 2026-05-09 02:41 | 19.02186 | -85.20170 | 31397 ft | 520 kts | 134° |
| 2026-05-09 02:41 | 18.99680 | -85.17430 | 31771 ft | 519 kts | 134° |
| 2026-05-09 02:41 | 18.97158 | -85.14675 | 31878 ft | 523 kts | 134° |
| 2026-05-09 02:42 | 18.94629 | -85.11913 | 32188 ft | 523 kts | 134° |
| 2026-05-09 02:42 | 18.92105 | -85.09156 | 32620 ft | 520 kts | 134° |
| 2026-05-09 02:42 | 18.89598 | -85.06420 | 33028 ft | 518 kts | 134° |
| 2026-05-09 02:42 | 18.87099 | -85.03693 | 33384 ft | 516 kts | 134° |
| 2026-05-09 02:43 | 18.84598 | -85.00967 | 33788 ft | 514 kts | 134° |
| 2026-05-09 02:43 | 18.82127 | -84.98273 | 34222 ft | 509 kts | 134° |
| 2026-05-09 02:43 | 18.79654 | -84.95580 | 34307 ft | 514 kts | 134° |
| 2026-05-09 02:43 | 18.77158 | -84.92861 | 34457 ft | 516 kts | 133° |
| 2026-05-09 02:44 | 18.74671 | -84.90153 | 34869 ft | 510 kts | 134° |
| 2026-05-09 02:44 | 18.72244 | -84.87513 | 35278 ft | 506 kts | 133° |
| 2026-05-09 02:44 | 18.69783 | -84.84838 | 35433 ft | 508 kts | 133° |
| 2026-05-09 02:44 | 18.67320 | -84.82162 | 35682 ft | 508 kts | 133° |
| 2026-05-09 02:45 | 18.64839 | -84.79465 | 35684 ft | 514 kts | 133° |
| 2026-05-09 02:45 | 18.62353 | -84.76765 | 35955 ft | 512 kts | 132° |
| 2026-05-09 02:45 | 18.59867 | -84.74066 | 36122 ft | 513 kts | 132° |
| 2026-05-09 02:45 | 18.57394 | -84.71382 | 36530 ft | 507 kts | 133° |
| 2026-05-09 02:46 | 18.54946 | -84.68729 | 36943 ft | 503 kts | 133° |
| 2026-05-09 02:46 | 18.52503 | -84.66081 | 37045 ft | 506 kts | 132° |
| 2026-05-09 02:46 | 18.50039 | -84.63409 | 37139 ft | 508 kts | 133° |
| 2026-05-09 02:46 | 18.47581 | -84.60747 | 37438 ft | 506 kts | 132° |
| 2026-05-09 02:47 | 18.45132 | -84.58096 | 37651 ft | 505 kts | 132° |
| 2026-05-09 02:47 | 18.42709 | -84.55474 | 37827 ft | 505 kts | 132° |
| 2026-05-09 02:47 | 18.40256 | -84.52820 | 37934 ft | 506 kts | 133° |
| 2026-05-09 02:48 | 18.35352 | -84.47518 | 37947 ft | 503 kts | 133° |
| 2026-05-09 02:48 | 18.30460 | -84.42237 | 37942 ft | 504 kts | 131° |
| 2026-05-09 02:49 | 18.25548 | -84.36935 | 37943 ft | 506 kts | 131° |
| 2026-05-09 02:49 | 18.20627 | -84.31627 | 37947 ft | 506 kts | 132° |
| 2026-05-09 02:50 | 18.15748 | -84.26372 | 37946 ft | 504 kts | 133° |
| 2026-05-09 02:50 | 18.10841 | -84.21092 | 37945 ft | 505 kts | 132° |
| 2026-05-09 02:51 | 18.05932 | -84.15811 | 37947 ft | 505 kts | 132° |
| 2026-05-09 02:51 | 18.01017 | -84.10530 | 37946 ft | 506 kts | 132° |
| 2026-05-09 02:52 | 17.96089 | -84.05240 | 37949 ft | 507 kts | 132° |
| 2026-05-09 02:52 | 17.91151 | -83.99943 | 37949 ft | 507 kts | 132° |
| 2026-05-09 02:53 | 17.86212 | -83.94649 | 37949 ft | 507 kts | 132° |
| 2026-05-09 02:53 | 17.81282 | -83.89369 | 37949 ft | 505 kts | 132° |
| 2026-05-09 02:54 | 17.76401 | -83.84148 | 37954 ft | 505 kts | 132° |
| 2026-05-09 02:54 | 17.71485 | -83.78892 | 37954 ft | 504 kts | 132° |
| 2026-05-09 02:55 | 17.66571 | -83.73643 | 37952 ft | 504 kts | 132° |
| 2026-05-09 02:55 | 17.61632 | -83.68371 | 38226 ft | 504 kts | 133° |
| 2026-05-09 02:55 | 17.59212 | -83.65791 | 38518 ft | 502 kts | 132° |
| 2026-05-09 02:56 | 17.56765 | -83.63182 | 38671 ft | 502 kts | 132° |
| 2026-05-09 02:56 | 17.54322 | -83.60578 | 38815 ft | 501 kts | 132° |
| 2026-05-09 02:56 | 17.51877 | -83.57973 | 38931 ft | 501 kts | 133° |
| 2026-05-09 02:57 | 17.46987 | -83.52765 | 38955 ft | 501 kts | 133° |
| 2026-05-09 02:57 | 17.42085 | -83.47550 | 38952 ft | 502 kts | 133° |
| 2026-05-09 02:58 | 17.37177 | -83.42334 | 38952 ft | 502 kts | 133° |
| 2026-05-09 02:58 | 17.32298 | -83.37152 | 38953 ft | 503 kts | 133° |
| 2026-05-09 02:59 | 17.27392 | -83.31946 | 38952 ft | 503 kts | 133° |
| 2026-05-09 02:59 | 17.22483 | -83.26740 | 38952 ft | 501 kts | 133° |
| 2026-05-09 03:00 | 17.17575 | -83.21541 | 38954 ft | 502 kts | 132° |
| 2026-05-09 03:00 | 17.12664 | -83.16341 | 38954 ft | 502 kts | 132° |
| 2026-05-09 03:01 | 17.07743 | -83.11133 | 38954 ft | 503 kts | 133° |
| 2026-05-09 03:01 | 17.02855 | -83.05966 | 38952 ft | 503 kts | 133° |
| 2026-05-09 03:02 | 16.97928 | -83.00763 | 38951 ft | 502 kts | 133° |
| 2026-05-09 03:02 | 16.92999 | -82.95563 | 38950 ft | 504 kts | 133° |
| 2026-05-09 03:03 | 16.88092 | -82.90387 | 38952 ft | 504 kts | 133° |
| 2026-05-09 03:03 | 16.83145 | -82.85174 | 38952 ft | 503 kts | 133° |
| 2026-05-09 03:04 | 16.78219 | -82.79989 | 38952 ft | 503 kts | 133° |
| 2026-05-09 03:04 | 16.73286 | -82.74800 | 38953 ft | 504 kts | 133° |
| 2026-05-09 03:05 | 16.68370 | -82.69632 | 38953 ft | 504 kts | 133° |
| 2026-05-09 03:05 | 16.63422 | -82.64434 | 38955 ft | 505 kts | 133° |
| 2026-05-09 03:06 | 16.58480 | -82.59246 | 38954 ft | 504 kts | 133° |
| 2026-05-09 03:06 | 16.53541 | -82.54067 | 38952 ft | 502 kts | 133° |
| 2026-05-09 03:07 | 16.48630 | -82.48920 | 38953 ft | 502 kts | 133° |
| 2026-05-09 03:07 | 16.43707 | -82.43766 | 38952 ft | 502 kts | 133° |
| 2026-05-09 03:08 | 16.38770 | -82.38599 | 38955 ft | 503 kts | 133° |
| 2026-05-09 03:08 | 16.33827 | -82.33431 | 38955 ft | 504 kts | 133° |
| 2026-05-09 03:09 | 16.28877 | -82.28258 | 38953 ft | 504 kts | 133° |
| 2026-05-09 03:09 | 16.23923 | -82.23088 | 38952 ft | 503 kts | 133° |
| 2026-05-09 03:10 | 16.18977 | -82.17928 | 38954 ft | 503 kts | 133° |
| 2026-05-09 03:10 | 16.14056 | -82.12798 | 38953 ft | 503 kts | 133° |
| 2026-05-09 03:11 | 16.09111 | -82.07647 | 38951 ft | 502 kts | 133° |
| 2026-05-09 03:11 | 16.04165 | -82.02499 | 38949 ft | 502 kts | 133° |
| 2026-05-09 03:12 | 15.99254 | -81.97391 | 38949 ft | 502 kts | 133° |
| 2026-05-09 03:12 | 15.94310 | -81.92254 | 38949 ft | 502 kts | 133° |
| 2026-05-09 03:13 | 15.86887 | -81.84546 | 38952 ft | 503 kts | 133° |
| 2026-05-09 03:13 | 15.81961 | -81.79436 | 38953 ft | 504 kts | 133° |
| 2026-05-09 03:14 | 15.76992 | -81.74284 | 38949 ft | 503 kts | 133° |
| 2026-05-09 03:14 | 15.72033 | -81.69148 | 38948 ft | 504 kts | 133° |
| 2026-05-09 03:15 | 15.67056 | -81.63996 | 38954 ft | 505 kts | 133° |
| 2026-05-09 03:15 | 15.62079 | -81.58847 | 38951 ft | 505 kts | 133° |
| 2026-05-09 03:16 | 15.57130 | -81.53731 | 38949 ft | 504 kts | 134° |
| 2026-05-09 03:16 | 15.52164 | -81.48603 | 38953 ft | 503 kts | 133° |
| 2026-05-09 03:17 | 15.47185 | -81.43464 | 38952 ft | 504 kts | 134° |
| 2026-05-09 03:17 | 15.42222 | -81.38345 | 38946 ft | 503 kts | 134° |
| 2026-05-09 03:18 | 15.37261 | -81.33234 | 38945 ft | 504 kts | 133° |
| 2026-05-09 03:18 | 15.33115 | -81.28963 | 38945 ft | 506 kts | 133° |
| 2026-05-09 03:19 | 15.27306 | -81.22983 | 38954 ft | 507 kts | 133° |
| 2026-05-09 03:19 | 15.23115 | -81.18672 | 38949 ft | 507 kts | 133° |
| 2026-05-09 03:20 | 15.18116 | -81.13535 | 38946 ft | 506 kts | 133° |
| 2026-05-09 03:20 | 15.13151 | -81.08435 | 38944 ft | 506 kts | 133° |
| 2026-05-09 03:21 | 15.08155 | -81.03307 | 38953 ft | 506 kts | 133° |
| 2026-05-09 03:21 | 15.03153 | -80.98177 | 38950 ft | 506 kts | 133° |
| 2026-05-09 03:22 | 14.98151 | -80.93049 | 38949 ft | 505 kts | 134° |
| 2026-05-09 03:22 | 14.93170 | -80.87948 | 38950 ft | 503 kts | 133° |
| 2026-05-09 03:23 | 14.88220 | -80.82883 | 38944 ft | 504 kts | 133° |
| 2026-05-09 03:23 | 14.83227 | -80.77775 | 38941 ft | 505 kts | 133° |
| 2026-05-09 03:24 | 14.78230 | -80.72666 | 38944 ft | 504 kts | 134° |
| 2026-05-09 03:24 | 14.73254 | -80.67583 | 38948 ft | 502 kts | 134° |
| 2026-05-09 03:25 | 14.68289 | -80.62517 | 38945 ft | 501 kts | 134° |
| 2026-05-09 03:25 | 14.63328 | -80.57456 | 38946 ft | 502 kts | 134° |
| 2026-05-09 03:26 | 14.58356 | -80.52387 | 38952 ft | 501 kts | 134° |
| 2026-05-09 03:26 | 14.53396 | -80.47335 | 38948 ft | 500 kts | 134° |
| 2026-05-09 03:27 | 14.48457 | -80.42308 | 38945 ft | 502 kts | 133° |
| 2026-05-09 03:27 | 14.43474 | -80.37237 | 38945 ft | 503 kts | 133° |
| 2026-05-09 03:28 | 14.38500 | -80.32179 | 38942 ft | 502 kts | 133° |
| 2026-05-09 03:28 | 14.33525 | -80.27126 | 38943 ft | 502 kts | 133° |
| 2026-05-09 03:29 | 14.28545 | -80.22070 | 38945 ft | 503 kts | 133° |
| 2026-05-09 03:29 | 14.23590 | -80.17041 | 38946 ft | 503 kts | 133° |
| 2026-05-09 03:30 | 14.18615 | -80.11996 | 38945 ft | 500 kts | 134° |
| 2026-05-09 03:30 | 14.13652 | -80.06967 | 38945 ft | 499 kts | 134° |
| 2026-05-09 03:31 | 14.08704 | -80.01957 | 38943 ft | 499 kts | 134° |
| 2026-05-09 03:31 | 14.03754 | -79.96948 | 38943 ft | 499 kts | 134° |
| 2026-05-09 03:32 | 13.98799 | -79.91936 | 38943 ft | 499 kts | 134° |
| 2026-05-09 03:32 | 13.93843 | -79.86927 | 38945 ft | 499 kts | 134° |
| 2026-05-09 03:33 | 13.88875 | -79.81911 | 38942 ft | 501 kts | 134° |
| 2026-05-09 03:33 | 13.83925 | -79.76911 | 38941 ft | 502 kts | 135° |
| 2026-05-09 03:34 | 13.78938 | -79.71879 | 38944 ft | 501 kts | 135° |
| 2026-05-09 03:34 | 13.73956 | -79.66855 | 38938 ft | 500 kts | 135° |
| 2026-05-09 03:35 | 13.68993 | -79.61855 | 38935 ft | 499 kts | 135° |
| 2026-05-09 03:35 | 13.64063 | -79.56892 | 38943 ft | 498 kts | 135° |
| 2026-05-09 03:36 | 13.59106 | -79.51905 | 38943 ft | 499 kts | 135° |
| 2026-05-09 03:36 | 13.54133 | -79.46904 | 38941 ft | 499 kts | 135° |
| 2026-05-09 03:37 | 13.49192 | -79.41937 | 38943 ft | 499 kts | 136° |
| 2026-05-09 03:37 | 13.44221 | -79.36944 | 38939 ft | 499 kts | 136° |
| 2026-05-09 03:38 | 13.39233 | -79.31982 | 38928 ft | 499 kts | 139° |
| 2026-05-09 03:38 | 13.33854 | -79.27479 | 38934 ft | 498 kts | 142° |
| 2026-05-09 03:39 | 13.28379 | -79.23092 | 38936 ft | 501 kts | 142° |
| 2026-05-09 03:39 | 13.22906 | -79.18743 | 38938 ft | 500 kts | 143° |
| 2026-05-09 03:40 | 13.17395 | -79.14359 | 38938 ft | 502 kts | 143° |
| 2026-05-09 03:40 | 13.11875 | -79.09961 | 38935 ft | 502 kts | 143° |
| 2026-05-09 03:41 | 13.06370 | -79.05574 | 38935 ft | 500 kts | 143° |
| 2026-05-09 03:41 | 13.00897 | -79.01216 | 38938 ft | 499 kts | 143° |
| 2026-05-09 03:42 | 12.95422 | -78.96858 | 38937 ft | 498 kts | 143° |
| 2026-05-09 03:42 | 12.89940 | -78.92497 | 38932 ft | 498 kts | 143° |
| 2026-05-09 03:43 | 12.84462 | -78.88142 | 38932 ft | 498 kts | 143° |
| 2026-05-09 03:43 | 12.78988 | -78.83792 | 38933 ft | 497 kts | 143° |
| 2026-05-09 03:44 | 12.73550 | -78.79474 | 38931 ft | 497 kts | 143° |
| 2026-05-09 03:44 | 12.68063 | -78.75120 | 38931 ft | 497 kts | 143° |
| 2026-05-09 03:45 | 12.62596 | -78.70783 | 38928 ft | 497 kts | 144° |
| 2026-05-09 03:45 | 12.57160 | -78.66474 | 38931 ft | 497 kts | 143° |
| 2026-05-09 03:46 | 12.51704 | -78.62151 | 38924 ft | 495 kts | 143° |
| 2026-05-09 03:46 | 12.46262 | -78.57841 | 38925 ft | 494 kts | 143° |
| 2026-05-09 03:47 | 12.40814 | -78.53529 | 38924 ft | 494 kts | 143° |
| 2026-05-09 03:47 | 12.35380 | -78.49231 | 38923 ft | 494 kts | 144° |
| 2026-05-09 03:48 | 12.29968 | -78.44952 | 38923 ft | 494 kts | 143° |
| 2026-05-09 03:48 | 12.24530 | -78.40655 | 38926 ft | 494 kts | 144° |
| 2026-05-09 03:49 | 12.19086 | -78.36357 | 38918 ft | 494 kts | 144° |
| 2026-05-09 03:49 | 12.13644 | -78.32061 | 38925 ft | 493 kts | 143° |
| 2026-05-09 03:50 | 12.08207 | -78.27771 | 38919 ft | 493 kts | 143° |
| 2026-05-09 03:50 | 12.02812 | -78.23519 | 38918 ft | 493 kts | 143° |
| 2026-05-09 03:51 | 11.97385 | -78.19239 | 38921 ft | 493 kts | 144° |
| 2026-05-09 03:51 | 11.91951 | -78.14961 | 38918 ft | 493 kts | 144° |
| 2026-05-09 03:52 | 11.86523 | -78.10686 | 38918 ft | 493 kts | 144° |
| 2026-05-09 03:52 | 11.81081 | -78.06404 | 38918 ft | 493 kts | 144° |
| 2026-05-09 03:53 | 11.75646 | -78.02130 | 38912 ft | 493 kts | 144° |
| 2026-05-09 03:53 | 11.70210 | -77.97857 | 38913 ft | 493 kts | 145° |
| 2026-05-09 03:54 | 11.64798 | -77.93605 | 38913 ft | 494 kts | 144° |
| 2026-05-09 03:54 | 11.59348 | -77.89326 | 38913 ft | 494 kts | 144° |
| 2026-05-09 03:55 | 11.53897 | -77.85048 | 38909 ft | 494 kts | 144° |
| 2026-05-09 03:55 | 11.48437 | -77.80763 | 38907 ft | 495 kts | 145° |
| 2026-05-09 03:56 | 11.42967 | -77.76477 | 38908 ft | 495 kts | 144° |
| 2026-05-09 03:56 | 11.37498 | -77.72189 | 38908 ft | 497 kts | 145° |
| 2026-05-09 03:57 | 11.32042 | -77.67917 | 38902 ft | 498 kts | 145° |
| 2026-05-09 03:57 | 11.26542 | -77.63612 | 38903 ft | 498 kts | 144° |
| 2026-05-09 03:58 | 11.21049 | -77.59313 | 38902 ft | 497 kts | 144° |
| 2026-05-09 03:58 | 11.15550 | -77.55011 | 38894 ft | 498 kts | 145° |
| 2026-05-09 03:59 | 11.10050 | -77.50712 | 38899 ft | 498 kts | 145° |
| 2026-05-09 03:59 | 11.04583 | -77.46440 | 38902 ft | 498 kts | 145° |
| 2026-05-09 04:00 | 10.99394 | -77.41741 | 38900 ft | 503 kts | 133° |
| 2026-05-09 04:00 | 10.95613 | -77.35718 | 38902 ft | 508 kts | 119° |
| 2026-05-09 04:01 | 10.92504 | -77.29252 | 38899 ft | 509 kts | 117° |
| 2026-05-09 04:01 | 10.89493 | -77.22719 | 38899 ft | 509 kts | 117° |
| 2026-05-09 04:02 | 10.86464 | -77.16203 | 38899 ft | 509 kts | 117° |
| 2026-05-09 04:02 | 10.83423 | -77.09733 | 38899 ft | 510 kts | 117° |
| 2026-05-09 04:03 | 10.80706 | -77.03054 | 38900 ft | 511 kts | 112° |
| 2026-05-09 04:03 | 10.78145 | -76.96308 | 38900 ft | 511 kts | 113° |
| 2026-05-09 04:04 | 10.75544 | -76.89583 | 38897 ft | 511 kts | 113° |
| 2026-05-09 04:04 | 10.72919 | -76.82853 | 38897 ft | 511 kts | 113° |
| 2026-05-09 04:05 | 10.70734 | -76.77262 | 38884 ft | 512 kts | 113° |
| 2026-05-09 04:05 | 10.67672 | -76.69441 | 38892 ft | 512 kts | 113° |
| 2026-05-09 04:06 | 10.65034 | -76.62708 | 38893 ft | 512 kts | 113° |
| 2026-05-09 04:06 | 10.62836 | -76.57105 | 38894 ft | 512 kts | 113° |
| 2026-05-09 04:07 | 10.60197 | -76.50378 | 38895 ft | 512 kts | 113° |
| 2026-05-09 04:07 | 10.57554 | -76.43647 | 38895 ft | 512 kts | 113° |
| 2026-05-09 04:08 | 10.54928 | -76.36966 | 38884 ft | 512 kts | 113° |
| 2026-05-09 04:08 | 10.52283 | -76.30240 | 38887 ft | 512 kts | 113° |
| 2026-05-09 04:09 | 10.50962 | -76.26882 | 38752 ft | 508 kts | 113° |
| 2026-05-09 04:09 | 10.49652 | -76.23552 | 38021 ft | 509 kts | 113° |
| 2026-05-09 04:09 | 10.48331 | -76.20200 | 37108 ft | 513 kts | 113° |
| 2026-05-09 04:09 | 10.47002 | -76.16827 | 36176 ft | 512 kts | 112° |
| 2026-05-09 04:10 | 10.45678 | -76.13470 | 35105 ft | 508 kts | 112° |
| 2026-05-09 04:10 | 10.44369 | -76.10149 | 33967 ft | 505 kts | 111° |
| 2026-05-09 04:10 | 10.43064 | -76.06839 | 32450 ft | 505 kts | 111° |
| 2026-05-09 04:10 | 10.41769 | -76.03554 | 30867 ft | 507 kts | 110° |
| 2026-05-09 04:11 | 10.40461 | -76.00236 | 29283 ft | 506 kts | 111° |
| 2026-05-09 04:11 | 10.39159 | -75.96938 | 27922 ft | 496 kts | 110° |
| 2026-05-09 04:11 | 10.37885 | -75.93714 | 26734 ft | 486 kts | 110° |
| 2026-05-09 04:11 | 10.36639 | -75.90559 | 25752 ft | 480 kts | 110° |
| 2026-05-09 04:12 | 10.35405 | -75.87435 | 25181 ft | 475 kts | 110° |
| 2026-05-09 04:12 | 10.34182 | -75.84341 | 24613 ft | 469 kts | 110° |
| 2026-05-09 04:12 | 10.32970 | -75.81273 | 24017 ft | 465 kts | 110° |
| 2026-05-09 04:12 | 10.31772 | -75.78246 | 23443 ft | 460 kts | 110° |
| 2026-05-09 04:13 | 10.30623 | -75.75235 | 22759 ft | 454 kts | 107° |
| 2026-05-09 04:13 | 10.30064 | -75.72129 | 22240 ft | 444 kts | 94° |
| 2026-05-09 04:13 | 10.29916 | -75.69018 | 21625 ft | 438 kts | 91° |
| 2026-05-09 04:13 | 10.29833 | -75.65933 | 20954 ft | 435 kts | 91° |
| 2026-05-09 04:14 | 10.29758 | -75.62910 | 20295 ft | 432 kts | 91° |
| 2026-05-09 04:14 | 10.29682 | -75.59867 | 19638 ft | 430 kts | 91° |
| 2026-05-09 04:14 | 10.29607 | -75.56846 | 19174 ft | 427 kts | 90° |
| 2026-05-09 04:14 | 10.29530 | -75.53833 | 18802 ft | 426 kts | 90° |
| 2026-05-09 04:15 | 10.29452 | -75.50830 | 18672 ft | 426 kts | 91° |
| 2026-05-09 04:15 | 10.29379 | -75.47823 | 18667 ft | 426 kts | 90° |
| 2026-05-09 04:15 | 10.29444 | -75.44813 | 18670 ft | 424 kts | 86° |
| 2026-05-09 04:15 | 10.29901 | -75.41868 | 18667 ft | 424 kts | 72° |
| 2026-05-09 04:16 | 10.31153 | -75.39234 | 18278 ft | 405 kts | 56° |
| 2026-05-09 04:16 | 10.33050 | -75.37174 | 17148 ft | 398 kts | 38° |
| 2026-05-09 04:16 | 10.35504 | -75.35875 | 15920 ft | 400 kts | 17° |
| 2026-05-09 04:16 | 10.38299 | -75.35602 | 15565 ft | 410 kts | 357° |
| 2026-05-09 04:17 | 10.41139 | -75.35974 | 15324 ft | 412 kts | 356° |
| 2026-05-09 04:17 | 10.43974 | -75.35832 | 15171 ft | 406 kts | 15° |
| 2026-05-09 04:17 | 10.46566 | -75.34782 | 14644 ft | 401 kts | 35° |
| 2026-05-09 04:17 | 10.48462 | -75.32777 | 13530 ft | 392 kts | 59° |
| 2026-05-09 04:18 | 10.49721 | -75.30336 | 12041 ft | 391 kts | 65° |
| 2026-05-09 04:18 | 10.50869 | -75.27865 | 10980 ft | 382 kts | 65° |
| 2026-05-09 04:18 | 10.51978 | -75.25452 | 10105 ft | 370 kts | 66° |
| 2026-05-09 04:18 | 10.53018 | -75.23179 | 9560 ft | 349 kts | 66° |
| 2026-05-09 04:19 | 10.54015 | -75.20994 | 8932 ft | 333 kts | 66° |
| 2026-05-09 04:19 | 10.54969 | -75.18903 | 8329 ft | 319 kts | 66° |
| 2026-05-09 04:19 | 10.56008 | -75.16972 | 7911 ft | 302 kts | 57° |
| 2026-05-09 04:19 | 10.57259 | -75.15326 | 7640 ft | 288 kts | 52° |
| 2026-05-09 04:20 | 10.58440 | -75.13707 | 7213 ft | 283 kts | 62° |
| 2026-05-09 04:20 | 10.59157 | -75.11838 | 6807 ft | 284 kts | 74° |
| 2026-05-09 04:20 | 10.59689 | -75.09906 | 6397 ft | 283 kts | 76° |
| 2026-05-09 04:20 | 10.60213 | -75.07978 | 5953 ft | 283 kts | 72° |
| 2026-05-09 04:21 | 10.61043 | -75.06167 | 5524 ft | 283 kts | 60° |
| 2026-05-09 04:21 | 10.62116 | -75.04491 | 5086 ft | 282 kts | 54° |
| 2026-05-09 04:21 | 10.64524 | -75.01377 | 4233 ft | 281 kts | 50° |
| 2026-05-09 04:22 | 10.65773 | -74.99890 | 4040 ft | 271 kts | 49° |
| 2026-05-09 04:22 | 10.67012 | -74.98446 | 3914 ft | 270 kts | 48° |
| 2026-05-09 04:22 | 10.68248 | -74.97022 | 3753 ft | 269 kts | 48° |
| 2026-05-09 04:22 | 10.69496 | -74.95594 | 3479 ft | 270 kts | 48° |
| 2026-05-09 04:23 | 10.70697 | -74.94168 | 3362 ft | 258 kts | 52° |
| 2026-05-09 04:23 | 10.71856 | -74.92851 | 3329 ft | 241 kts | 41° |
| 2026-05-09 04:23 | 10.73089 | -74.91791 | 3308 ft | 221 kts | 39° |
| 2026-05-09 04:23 | 10.74224 | -74.90824 | 3296 ft | 209 kts | 38° |
| 2026-05-09 04:24 | 10.75284 | -74.89904 | 3278 ft | 191 kts | 40° |
| 2026-05-09 04:24 | 10.76254 | -74.89017 | 3059 ft | 184 kts | 40° |
| 2026-05-09 04:24 | 10.77206 | -74.88190 | 2756 ft | 176 kts | 38° |
| 2026-05-09 04:24 | 10.78119 | -74.87412 | 2502 ft | 167 kts | 37° |
| 2026-05-09 04:25 | 10.78978 | -74.86673 | 2288 ft | 157 kts | 38° |
| 2026-05-09 04:25 | 10.79787 | -74.85976 | 2087 ft | 148 kts | 38° |
| 2026-05-09 04:25 | 10.80559 | -74.85312 | 1907 ft | 147 kts | 38° |
| 2026-05-09 04:25 | 10.81339 | -74.84641 | 1718 ft | 147 kts | 37° |
| 2026-05-09 04:26 | 10.82132 | -74.83956 | 1543 ft | 152 kts | 39° |
| 2026-05-09 04:26 | 10.82922 | -74.83235 | 1342 ft | 152 kts | 39° |
| 2026-05-09 04:26 | 10.83718 | -74.82544 | 1121 ft | 149 kts | 37° |
| 2026-05-09 04:26 | 10.84522 | -74.81877 | 911 ft | 148 kts | 36° |
| 2026-05-09 04:27 | 10.85310 | -74.81205 | 778 ft | 147 kts | 39° |
| 2026-05-09 04:27 | 10.86103 | -74.80540 | 612 ft | 146 kts | 38° |
| 2026-05-09 04:27 | 10.86877 | -74.79885 | 400 ft | 143 kts | 39° |
| 2026-05-09 04:27 | 10.87626 | -74.79226 | 221 ft | 142 kts | 39° |
| 2026-05-09 04:28 | 10.88373 | -74.78590 | 96 ft | 131 kts | 40° |
| 2026-05-09 04:28 | 10.88882 | -74.78154 | 88 ft | 66 kts | 39° |
| 2026-05-09 04:28 | 10.89193 | -74.77885 | 66 ft | 51 kts | 40° |
| 2026-05-09 04:28 | 10.89377 | -74.77693 | 65 ft | 20 kts | 73° |
| 2026-05-09 04:29 | 10.89369 | -74.77568 | 61 ft | 10 kts | 126° |
| 2026-05-09 04:29 | 10.89367 | -74.77566 | 61 ft | 0 kts | 126° |
| 2026-05-09 04:29 | 10.89358 | -74.77554 | 63 ft | 8 kts | 131° |
| 2026-05-09 04:30 | 10.89280 | -74.77553 | 64 ft | 15 kts | 203° |
| 2026-05-09 04:30 | 10.89218 | -74.77615 | 65 ft | 13 kts | 226° |
| 2026-05-09 04:30 | 10.89156 | -74.77672 | 68 ft | 12 kts | 219° |
| 2026-05-09 04:30 | 10.89086 | -74.77730 | 66 ft | 13 kts | 219° |
| 2026-05-09 04:31 | 10.89010 | -74.77794 | 67 ft | 14 kts | 220° |
| 2026-05-09 04:31 | 10.88996 | -74.77806 | 69 ft | 0 kts | 219° |
| 2026-05-09 04:38 | 10.88995 | -74.77806 | 69 ft | 1 kts | 219° |
| 2026-05-09 04:38 | 10.88972 | -74.77825 | 68 ft | 9 kts | 219° |
| 2026-05-09 04:38 | 10.88902 | -74.77885 | 86 ft | 17 kts | 220° |
| 2026-05-09 04:39 | 10.88809 | -74.77964 | 87 ft | 18 kts | 220° |
| 2026-05-09 04:39 | 10.88715 | -74.78044 | 89 ft | 18 kts | 220° |
| 2026-05-09 04:39 | 10.88620 | -74.78125 | 89 ft | 18 kts | 220° |
| 2026-05-09 04:39 | 10.88524 | -74.78207 | 92 ft | 18 kts | 220° |
| 2026-05-09 04:40 | 10.88427 | -74.78290 | 93 ft | 18 kts | 220° |
| 2026-05-09 04:40 | 10.88304 | -74.78396 | 95 ft | 30 kts | 220° |
| 2026-05-09 04:40 | 10.88140 | -74.78535 | 100 ft | 31 kts | 220° |
| 2026-05-09 04:40 | 10.87978 | -74.78674 | 102 ft | 30 kts | 220° |
| 2026-05-09 04:41 | 10.87919 | -74.78835 | 102 ft | 23 kts | 265° |
| 2026-05-09 04:41 | 10.87931 | -74.78959 | 106 ft | 1 kts | 321° |
| 2026-05-09 04:41 | 10.87938 | -74.78958 | 104 ft | 3 kts | 1° |
| 2026-05-09 04:41 | 10.88001 | -74.78907 | 102 ft | 22 kts | 43° |
| 2026-05-09 04:42 | 10.88219 | -74.78720 | 99 ft | 71 kts | 39° |
| 2026-05-09 04:42 | 10.88765 | -74.78253 | 90 ft | 131 kts | 40° |
| 2026-05-09 04:42 | 10.89566 | -74.77564 | 386 ft | 153 kts | 40° |
| 2026-05-09 04:42 | 10.90355 | -74.76878 | 1031 ft | 149 kts | 38° |
| 2026-05-09 04:43 | 10.91146 | -74.76212 | 1445 ft | 153 kts | 33° |
| 2026-05-09 04:43 | 10.92174 | -74.75729 | 1635 ft | 173 kts | 19° |
| 2026-05-09 04:43 | 10.93407 | -74.75394 | 1890 ft | 193 kts | 14° |
| 2026-05-09 04:43 | 10.94792 | -74.75077 | 2170 ft | 214 kts | 13° |
| 2026-05-09 04:44 | 10.96308 | -74.74701 | 2458 ft | 234 kts | 15° |
| 2026-05-09 04:44 | 10.97937 | -74.74239 | 2796 ft | 251 kts | 17° |
| 2026-05-09 04:44 | 10.99644 | -74.73697 | 3325 ft | 260 kts | 18° |
| 2026-05-09 04:44 | 11.01361 | -74.73117 | 3921 ft | 266 kts | 19° |
| 2026-05-09 04:45 | 11.03132 | -74.72502 | 4529 ft | 271 kts | 19° |
| 2026-05-09 04:45 | 11.04908 | -74.71879 | 5131 ft | 275 kts | 19° |
| 2026-05-09 04:45 | 11.06740 | -74.71237 | 5820 ft | 276 kts | 19° |
| 2026-05-09 04:45 | 11.08590 | -74.70661 | 6472 ft | 279 kts | 12° |
| 2026-05-09 04:46 | 11.10538 | -74.70555 | 7097 ft | 283 kts | 354° |
| 2026-05-09 04:46 | 11.12466 | -74.71001 | 7743 ft | 287 kts | 345° |
| 2026-05-09 04:46 | 11.14389 | -74.71611 | 8399 ft | 290 kts | 343° |
| 2026-05-09 04:46 | 11.16319 | -74.72254 | 9071 ft | 293 kts | 344° |
| 2026-05-09 04:47 | 11.18272 | -74.72913 | 9750 ft | 297 kts | 344° |
| 2026-05-09 04:47 | 11.20253 | -74.73583 | 10235 ft | 307 kts | 344° |
| 2026-05-09 04:47 | 11.22311 | -74.74279 | 10525 ft | 323 kts | 344° |
| 2026-05-09 04:47 | 11.24493 | -74.75020 | 10805 ft | 338 kts | 344° |
| 2026-05-09 04:48 | 11.26767 | -74.75793 | 11085 ft | 352 kts | 343° |
| 2026-05-09 04:48 | 11.29132 | -74.76599 | 11363 ft | 365 kts | 345° |
| 2026-05-09 04:48 | 11.31586 | -74.77434 | 11593 ft | 377 kts | 345° |
| 2026-05-09 04:48 | 11.34105 | -74.78293 | 11977 ft | 384 kts | 345° |
| 2026-05-09 04:49 | 11.36650 | -74.79161 | 12458 ft | 387 kts | 345° |
| 2026-05-09 04:49 | 11.39214 | -74.80037 | 12933 ft | 391 kts | 345° |
| 2026-05-09 04:49 | 11.41809 | -74.80924 | 13411 ft | 394 kts | 346° |
| 2026-05-09 04:49 | 11.44417 | -74.81815 | 13869 ft | 397 kts | 345° |
| 2026-05-09 04:50 | 11.47041 | -74.82712 | 14295 ft | 399 kts | 345° |
| 2026-05-09 04:50 | 11.49687 | -74.83615 | 14691 ft | 403 kts | 345° |
| 2026-05-09 04:50 | 11.52365 | -74.84527 | 15079 ft | 406 kts | 344° |
| 2026-05-09 04:50 | 11.55013 | -74.85431 | 15492 ft | 408 kts | 344° |
| 2026-05-09 04:51 | 11.57718 | -74.86357 | 15870 ft | 412 kts | 346° |
| 2026-05-09 04:51 | 11.60449 | -74.87289 | 16245 ft | 414 kts | 344° |
| 2026-05-09 04:51 | 11.63191 | -74.88225 | 16654 ft | 417 kts | 344° |
| 2026-05-09 04:51 | 11.65958 | -74.89171 | 16951 ft | 422 kts | 346° |
| 2026-05-09 04:52 | 11.68750 | -74.90123 | 17338 ft | 424 kts | 344° |
| 2026-05-09 04:52 | 11.71555 | -74.91081 | 17721 ft | 426 kts | 345° |
| 2026-05-09 04:52 | 11.73422 | -74.91719 | 17931 ft | 429 kts | 346° |
| 2026-05-09 04:52 | 11.76268 | -74.92690 | 18259 ft | 432 kts | 344° |
| 2026-05-09 04:53 | 11.79114 | -74.93665 | 18627 ft | 433 kts | 344° |
| 2026-05-09 04:53 | 11.82914 | -74.94968 | 19044 ft | 435 kts | 345° |
| 2026-05-09 04:53 | 11.84860 | -74.95636 | 19271 ft | 436 kts | 344° |
| 2026-05-09 04:53 | 11.87746 | -74.96626 | 19621 ft | 437 kts | 345° |
| 2026-05-09 04:54 | 11.90639 | -74.97616 | 19904 ft | 440 kts | 344° |
| 2026-05-09 04:54 | 11.93512 | -74.98598 | 20264 ft | 441 kts | 344° |
| 2026-05-09 04:54 | 11.96431 | -74.99596 | 20617 ft | 442 kts | 345° |
| 2026-05-09 04:54 | 11.99365 | -75.00601 | 20903 ft | 445 kts | 345° |
| 2026-05-09 04:55 | 12.02306 | -75.01610 | 21257 ft | 446 kts | 344° |
| 2026-05-09 04:55 | 12.05255 | -75.02622 | 21568 ft | 448 kts | 345° |
| 2026-05-09 04:55 | 12.08232 | -75.03641 | 21902 ft | 450 kts | 345° |
| 2026-05-09 04:55 | 12.11208 | -75.04660 | 22267 ft | 452 kts | 345° |
| 2026-05-09 04:56 | 12.14201 | -75.05684 | 22595 ft | 454 kts | 345° |
| 2026-05-09 04:56 | 12.17174 | -75.06702 | 22931 ft | 456 kts | 345° |
| 2026-05-09 04:56 | 12.20193 | -75.07740 | 23276 ft | 458 kts | 345° |
| 2026-05-09 04:56 | 12.23222 | -75.08780 | 23604 ft | 460 kts | 344° |
| 2026-05-09 04:57 | 12.26262 | -75.09823 | 23904 ft | 461 kts | 345° |
| 2026-05-09 04:57 | 12.29308 | -75.10871 | 24213 ft | 462 kts | 344° |
| 2026-05-09 04:57 | 12.32362 | -75.11921 | 24547 ft | 463 kts | 344° |
| 2026-05-09 04:57 | 12.35422 | -75.12974 | 24875 ft | 465 kts | 345° |
| 2026-05-09 04:58 | 12.38497 | -75.14030 | 25229 ft | 466 kts | 344° |
| 2026-05-09 04:58 | 12.41537 | -75.15074 | 25584 ft | 467 kts | 343° |
| 2026-05-09 04:58 | 12.44632 | -75.16139 | 25933 ft | 469 kts | 344° |
| 2026-05-09 04:58 | 12.47731 | -75.17205 | 26340 ft | 470 kts | 343° |
| 2026-05-09 04:59 | 12.50838 | -75.18274 | 26689 ft | 473 kts | 343° |
| 2026-05-09 04:59 | 12.53964 | -75.19349 | 27101 ft | 474 kts | 343° |
| 2026-05-09 04:59 | 12.57091 | -75.20426 | 27521 ft | 475 kts | 343° |
| 2026-05-09 04:59 | 12.60242 | -75.21511 | 27868 ft | 478 kts | 343° |
| 2026-05-09 05:00 | 12.63392 | -75.22596 | 28331 ft | 478 kts | 343° |
| 2026-05-09 05:00 | 12.66545 | -75.23680 | 28692 ft | 480 kts | 342° |
| 2026-05-09 05:00 | 12.69724 | -75.24775 | 29032 ft | 482 kts | 343° |
| 2026-05-09 05:00 | 12.72910 | -75.25873 | 29466 ft | 483 kts | 342° |
| 2026-05-09 05:01 | 12.76076 | -75.26964 | 29604 ft | 489 kts | 342° |
| 2026-05-09 05:01 | 12.79301 | -75.28077 | 29975 ft | 489 kts | 342° |
| 2026-05-09 05:01 | 12.82538 | -75.29193 | 30263 ft | 491 kts | 342° |
| 2026-05-09 05:01 | 12.85800 | -75.30319 | 30480 ft | 494 kts | 342° |
| 2026-05-09 05:02 | 12.89059 | -75.31443 | 30812 ft | 494 kts | 342° |
| 2026-05-09 05:02 | 12.92331 | -75.32572 | 30990 ft | 497 kts | 342° |
| 2026-05-09 05:02 | 12.95611 | -75.33705 | 31329 ft | 496 kts | 342° |
| 2026-05-09 05:02 | 12.98876 | -75.34833 | 31721 ft | 495 kts | 341° |
| 2026-05-09 05:03 | 13.02107 | -75.35949 | 31997 ft | 495 kts | 342° |
| 2026-05-09 05:03 | 13.05354 | -75.37072 | 32467 ft | 491 kts | 341° |
| 2026-05-09 05:03 | 13.08602 | -75.38194 | 32683 ft | 493 kts | 341° |
| 2026-05-09 05:03 | 13.11840 | -75.39314 | 33123 ft | 489 kts | 341° |
| 2026-05-09 05:04 | 13.15056 | -75.40426 | 33540 ft | 487 kts | 341° |
| 2026-05-09 05:04 | 13.18273 | -75.41539 | 33773 ft | 487 kts | 341° |
| 2026-05-09 05:04 | 13.21473 | -75.42646 | 34232 ft | 482 kts | 341° |
| 2026-05-09 05:05 | 13.27873 | -75.44862 | 34509 ft | 487 kts | 341° |
| 2026-05-09 05:05 | 13.31085 | -75.45974 | 34802 ft | 486 kts | 341° |
| 2026-05-09 05:05 | 13.34298 | -75.47087 | 34930 ft | 488 kts | 341° |
| 2026-05-09 05:05 | 13.37504 | -75.48199 | 35262 ft | 485 kts | 341° |
| 2026-05-09 05:06 | 13.40707 | -75.49309 | 35401 ft | 488 kts | 340° |
| 2026-05-09 05:06 | 13.43880 | -75.50409 | 35658 ft | 485 kts | 340° |
| 2026-05-09 05:06 | 13.47073 | -75.51516 | 35975 ft | 483 kts | 340° |
| 2026-05-09 05:06 | 13.50273 | -75.52627 | 36128 ft | 485 kts | 340° |
| 2026-05-09 05:07 | 13.53466 | -75.53735 | 36407 ft | 483 kts | 340° |
| 2026-05-09 05:07 | 13.56667 | -75.54845 | 36522 ft | 485 kts | 340° |
| 2026-05-09 05:07 | 13.59868 | -75.55956 | 36718 ft | 485 kts | 340° |
| 2026-05-09 05:07 | 13.63057 | -75.57063 | 36967 ft | 483 kts | 340° |
| 2026-05-09 05:08 | 13.66220 | -75.58162 | 37102 ft | 485 kts | 340° |
| 2026-05-09 05:08 | 13.69418 | -75.59272 | 37385 ft | 482 kts | 340° |
| 2026-05-09 05:08 | 13.72602 | -75.60379 | 37511 ft | 483 kts | 340° |
| 2026-05-09 05:08 | 13.75792 | -75.61488 | 37687 ft | 483 kts | 339° |
| 2026-05-09 05:09 | 13.78971 | -75.62595 | 37910 ft | 482 kts | 340° |
| 2026-05-09 05:09 | 13.82144 | -75.63700 | 38118 ft | 480 kts | 340° |
| 2026-05-09 05:09 | 13.85302 | -75.64799 | 38467 ft | 476 kts | 340° |
| 2026-05-09 05:10 | 13.91570 | -75.66980 | 38654 ft | 478 kts | 339° |
| 2026-05-09 05:10 | 13.94711 | -75.68074 | 38877 ft | 475 kts | 340° |
| 2026-05-09 05:10 | 13.97849 | -75.69167 | 38942 ft | 477 kts | 340° |
| 2026-05-09 05:11 | 14.04163 | -75.71367 | 38939 ft | 479 kts | 339° |
| 2026-05-09 05:11 | 14.10490 | -75.73573 | 38941 ft | 479 kts | 339° |
| 2026-05-09 05:12 | 14.16804 | -75.75775 | 38935 ft | 479 kts | 340° |
| 2026-05-09 05:12 | 14.23081 | -75.77969 | 38945 ft | 479 kts | 339° |
| 2026-05-09 05:13 | 14.29394 | -75.80177 | 38942 ft | 480 kts | 340° |
| 2026-05-09 05:13 | 14.35736 | -75.82392 | 38938 ft | 481 kts | 340° |
| 2026-05-09 05:14 | 14.42081 | -75.84610 | 38939 ft | 481 kts | 340° |
| 2026-05-09 05:14 | 14.48438 | -75.86836 | 38936 ft | 481 kts | 340° |
| 2026-05-09 05:15 | 14.54735 | -75.89042 | 38946 ft | 480 kts | 340° |
| 2026-05-09 05:15 | 14.61058 | -75.91259 | 38941 ft | 480 kts | 340° |
| 2026-05-09 05:16 | 14.67350 | -75.93465 | 38937 ft | 479 kts | 340° |
| 2026-05-09 05:16 | 14.73691 | -75.95690 | 38949 ft | 479 kts | 340° |
| 2026-05-09 05:17 | 14.80028 | -75.97914 | 38942 ft | 479 kts | 340° |
| 2026-05-09 05:17 | 14.86356 | -76.00136 | 38948 ft | 480 kts | 340° |
| 2026-05-09 05:18 | 14.92723 | -76.01927 | 38943 ft | 480 kts | 348° |
| 2026-05-09 05:18 | 14.99338 | -76.03184 | 38950 ft | 481 kts | 349° |
| 2026-05-09 05:19 | 15.05921 | -76.04404 | 38958 ft | 481 kts | 349° |
| 2026-05-09 05:19 | 15.12461 | -76.05611 | 38962 ft | 480 kts | 349° |
| 2026-05-09 05:20 | 15.19068 | -76.06829 | 38956 ft | 480 kts | 349° |
| 2026-05-09 05:20 | 15.25671 | -76.08047 | 38949 ft | 479 kts | 350° |
| 2026-05-09 05:21 | 15.32242 | -76.09260 | 38949 ft | 478 kts | 350° |
| 2026-05-09 05:21 | 15.38811 | -76.10473 | 38949 ft | 478 kts | 350° |
| 2026-05-09 05:22 | 15.45321 | -76.11676 | 38949 ft | 478 kts | 350° |
| 2026-05-09 05:22 | 15.51889 | -76.12889 | 38958 ft | 478 kts | 350° |
| 2026-05-09 05:23 | 15.58457 | -76.14105 | 38951 ft | 477 kts | 350° |
| 2026-05-09 05:23 | 15.64958 | -76.15307 | 38950 ft | 477 kts | 350° |
| 2026-05-09 05:24 | 15.71506 | -76.16521 | 38949 ft | 477 kts | 350° |
| 2026-05-09 05:24 | 15.78051 | -76.17733 | 38888 ft | 477 kts | 350° |
| 2026-05-09 05:24 | 15.81307 | -76.18337 | 38675 ft | 476 kts | 350° |
| 2026-05-09 05:25 | 15.84573 | -76.18943 | 38413 ft | 476 kts | 350° |
| 2026-05-09 05:25 | 15.87834 | -76.19548 | 38134 ft | 477 kts | 350° |
| 2026-05-09 05:25 | 15.94395 | -76.20766 | 37601 ft | 477 kts | 350° |
| 2026-05-09 05:26 | 15.97648 | -76.21370 | 37096 ft | 474 kts | 350° |
| 2026-05-09 05:26 | 16.00851 | -76.21965 | 36507 ft | 472 kts | 350° |
| 2026-05-09 05:26 | 16.04088 | -76.22567 | 35867 ft | 472 kts | 350° |
| 2026-05-09 05:26 | 16.07327 | -76.23169 | 35222 ft | 472 kts | 349° |
| 2026-05-09 05:27 | 16.10558 | -76.23770 | 34577 ft | 473 kts | 349° |
| 2026-05-09 05:27 | 16.13812 | -76.24375 | 33812 ft | 476 kts | 349° |
| 2026-05-09 05:27 | 16.17085 | -76.24985 | 32996 ft | 479 kts | 349° |
| 2026-05-09 05:27 | 16.20380 | -76.25598 | 32225 ft | 481 kts | 349° |
| 2026-05-09 05:28 | 16.23685 | -76.26214 | 31442 ft | 483 kts | 350° |
| 2026-05-09 05:28 | 16.27001 | -76.26832 | 30634 ft | 486 kts | 350° |
| 2026-05-09 05:28 | 16.30342 | -76.27455 | 29766 ft | 489 kts | 350° |
| 2026-05-09 05:28 | 16.33696 | -76.28081 | 29010 ft | 488 kts | 351° |
| 2026-05-09 05:29 | 16.37019 | -76.28700 | 28376 ft | 484 kts | 351° |
| 2026-05-09 05:29 | 16.40327 | -76.29317 | 27749 ft | 480 kts | 351° |
| 2026-05-09 05:29 | 16.43603 | -76.29930 | 27141 ft | 477 kts | 351° |
| 2026-05-09 05:29 | 16.46852 | -76.30537 | 26538 ft | 473 kts | 351° |
| 2026-05-09 05:30 | 16.50080 | -76.31140 | 25943 ft | 469 kts | 351° |
| 2026-05-09 05:30 | 16.53280 | -76.31738 | 25349 ft | 466 kts | 351° |
| 2026-05-09 05:30 | 16.56469 | -76.32334 | 24765 ft | 463 kts | 352° |
| 2026-05-09 05:30 | 16.59623 | -76.32923 | 24173 ft | 460 kts | 352° |
| 2026-05-09 05:31 | 16.62766 | -76.33510 | 23583 ft | 457 kts | 351° |
| 2026-05-09 05:31 | 16.65882 | -76.34092 | 22938 ft | 453 kts | 352° |
| 2026-05-09 05:31 | 16.68938 | -76.34665 | 22363 ft | 448 kts | 352° |
| 2026-05-09 05:31 | 16.71992 | -76.35237 | 21788 ft | 443 kts | 352° |
| 2026-05-09 05:32 | 16.75009 | -76.35802 | 21217 ft | 438 kts | 352° |
| 2026-05-09 05:32 | 16.78000 | -76.36362 | 20671 ft | 434 kts | 352° |
| 2026-05-09 05:32 | 16.80956 | -76.36916 | 20105 ft | 430 kts | 352° |
| 2026-05-09 05:32 | 16.83892 | -76.37467 | 19540 ft | 426 kts | 352° |
| 2026-05-09 05:33 | 16.86803 | -76.38013 | 18980 ft | 423 kts | 352° |
| 2026-05-09 05:33 | 16.89692 | -76.38554 | 18420 ft | 420 kts | 353° |
| 2026-05-09 05:33 | 16.92557 | -76.39092 | 17801 ft | 417 kts | 353° |
| 2026-05-09 05:33 | 16.95395 | -76.39624 | 17221 ft | 412 kts | 352° |
| 2026-05-09 05:34 | 16.98205 | -76.40152 | 16658 ft | 408 kts | 353° |
| 2026-05-09 05:34 | 17.00985 | -76.40674 | 16095 ft | 404 kts | 353° |
| 2026-05-09 05:34 | 17.03743 | -76.41191 | 15534 ft | 401 kts | 353° |
| 2026-05-09 05:34 | 17.06430 | -76.41696 | 14989 ft | 398 kts | 353° |
| 2026-05-09 05:35 | 17.08959 | -76.42172 | 14471 ft | 395 kts | 353° |
| 2026-05-09 05:35 | 17.11661 | -76.42679 | 13900 ft | 393 kts | 353° |
| 2026-05-09 05:35 | 17.14343 | -76.43183 | 13283 ft | 391 kts | 353° |
| 2026-05-09 05:35 | 17.16973 | -76.43678 | 12730 ft | 387 kts | 352° |
| 2026-05-09 05:36 | 17.19607 | -76.44173 | 12161 ft | 383 kts | 352° |
| 2026-05-09 05:36 | 17.22221 | -76.44666 | 11618 ft | 379 kts | 352° |
| 2026-05-09 05:36 | 17.24775 | -76.45148 | 11411 ft | 365 kts | 352° |
| 2026-05-09 05:36 | 17.27222 | -76.45611 | 11287 ft | 350 kts | 352° |
| 2026-05-09 05:37 | 17.29566 | -76.46053 | 11149 ft | 335 kts | 352° |
| 2026-05-09 05:37 | 17.31776 | -76.46472 | 11011 ft | 310 kts | 352° |
| 2026-05-09 05:37 | 17.33155 | -76.46733 | 10937 ft | 300 kts | 353° |
| 2026-05-09 05:37 | 17.35170 | -76.47112 | 10810 ft | 288 kts | 353° |
| 2026-05-09 05:38 | 17.37110 | -76.47477 | 10706 ft | 280 kts | 353° |
| 2026-05-09 05:38 | 17.39028 | -76.47836 | 10503 ft | 281 kts | 353° |
| 2026-05-09 05:38 | 17.40945 | -76.48196 | 10219 ft | 279 kts | 353° |
| 2026-05-09 05:38 | 17.42847 | -76.48554 | 9921 ft | 277 kts | 353° |
| 2026-05-09 05:39 | 17.44795 | -76.48919 | 9691 ft | 291 kts | 353° |
| 2026-05-09 05:39 | 17.46802 | -76.49295 | 9595 ft | 293 kts | 352° |
| 2026-05-09 05:39 | 17.48807 | -76.49675 | 9133 ft | 294 kts | 352° |
| 2026-05-09 05:39 | 17.50823 | -76.50056 | 8699 ft | 293 kts | 353° |
| 2026-05-09 05:40 | 17.52825 | -76.50435 | 8359 ft | 291 kts | 352° |
| 2026-05-09 05:40 | 17.54754 | -76.50801 | 8057 ft | 290 kts | 353° |
| 2026-05-09 05:40 | 17.56739 | -76.51176 | 7757 ft | 288 kts | 353° |
| 2026-05-09 05:40 | 17.58714 | -76.51549 | 7442 ft | 287 kts | 353° |
| 2026-05-09 05:41 | 17.60681 | -76.51921 | 7141 ft | 285 kts | 353° |
| 2026-05-09 05:41 | 17.62614 | -76.52287 | 6844 ft | 284 kts | 353° |
| 2026-05-09 05:41 | 17.64565 | -76.52655 | 6537 ft | 282 kts | 353° |
| 2026-05-09 05:41 | 17.66516 | -76.53025 | 6218 ft | 281 kts | 353° |
| 2026-05-09 05:42 | 17.68440 | -76.53388 | 5920 ft | 281 kts | 353° |
| 2026-05-09 05:42 | 17.70364 | -76.53753 | 5631 ft | 280 kts | 353° |
| 2026-05-09 05:42 | 17.72282 | -76.54116 | 5324 ft | 280 kts | 353° |
| 2026-05-09 05:42 | 17.74199 | -76.54478 | 5031 ft | 279 kts | 353° |
| 2026-05-09 05:43 | 17.76110 | -76.54840 | 4719 ft | 278 kts | 353° |
| 2026-05-09 05:43 | 17.77994 | -76.55197 | 4427 ft | 278 kts | 353° |
| 2026-05-09 05:43 | 17.79921 | -76.55562 | 4114 ft | 278 kts | 354° |
| 2026-05-09 05:43 | 17.81792 | -76.55917 | 3822 ft | 275 kts | 353° |
| 2026-05-09 05:44 | 17.83648 | -76.56387 | 3575 ft | 272 kts | 341° |
| 2026-05-09 05:44 | 17.85169 | -76.57511 | 3412 ft | 268 kts | 310° |
| 2026-05-09 05:44 | 17.86045 | -76.59196 | 3282 ft | 259 kts | 294° |
| 2026-05-09 05:44 | 17.86718 | -76.60917 | 3144 ft | 249 kts | 292° |
| 2026-05-09 05:45 | 17.87345 | -76.62571 | 3019 ft | 238 kts | 293° |
| 2026-05-09 05:45 | 17.87955 | -76.64163 | 2785 ft | 232 kts | 293° |
| 2026-05-09 05:45 | 17.88556 | -76.65716 | 2462 ft | 224 kts | 293° |
| 2026-05-09 05:45 | 17.89122 | -76.67193 | 2136 ft | 212 kts | 293° |
| 2026-05-09 05:46 | 17.89658 | -76.68592 | 1856 ft | 201 kts | 293° |
| 2026-05-09 05:46 | 17.90169 | -76.69921 | 1581 ft | 191 kts | 294° |
| 2026-05-09 05:46 | 17.90648 | -76.71168 | 1327 ft | 182 kts | 294° |
| 2026-05-09 05:46 | 17.91109 | -76.72376 | 1069 ft | 175 kts | 294° |
| 2026-05-09 05:47 | 17.91543 | -76.73545 | 847 ft | 169 kts | 292° |
| 2026-05-09 05:47 | 17.91982 | -76.74670 | 646 ft | 163 kts | 297° |
| 2026-05-09 05:47 | 17.92399 | -76.75748 | 450 ft | 157 kts | 293° |
| 2026-05-09 05:47 | 17.92816 | -76.76818 | 216 ft | 160 kts | 293° |
| 2026-05-09 05:48 | 17.93244 | -76.77913 | 38 ft | 162 kts | 292° |
| 2026-05-09 05:48 | 17.93629 | -76.78917 | 23 ft | 130 kts | 292° |
| 2026-05-09 05:48 | 17.93886 | -76.79575 | 20 ft | 58 kts | 291° |
| 2026-05-09 05:48 | 17.93931 | -76.79691 | 18 ft | 0 kts | 292° |